KMOP/MOP METAR and TAF weather

Enter ICAO airport designator
Station Type Date Time Source
KMOP METAR 2019/02/20 17:16 UTC NOAA

KMOP 201716Z AUTO 08011G16KT 10SM BKN024 OVC038 M02/M10 A3002 RMK AO2 T10171101


Station Type Date Time Source
KMOP Decoded METAR 2019/02/20 17:16 UTC NOAA

Mount Pleasant, Mount Pleasant Municipal Airport, MI, United States (KMOP) 43-37N 84-44W
Feb 20, 2019 - 12:16 PM EST / 2019.02.20 1716 UTC
Wind: from the E (080 degrees) at 13 MPH (11 KT) gusting to 18 MPH (16 KT):0
Visibility: 10 mile(s):0
Sky conditions: overcast
Temperature: 28.9 F (-1.7 C)
Windchill: 17 F (-8 C):1
Dew Point: 13.8 F (-10.1 C)
Relative Humidity: 52%
Pressure (altimeter): 30.02 in. Hg (1016 hPa)
ob: KMOP 201716Z AUTO 08011G16KT 10SM BKN024 OVC038 M02/M10 A3002 RMK AO2 T10171101
cycle: 17

Station Type Date Time Source
KMOP TAF UTC NOAA

Error!


Example: see airport list